createdAt,value
2023-03-18T00:00:10.374Z,56.80
2023-03-18T00:01:12.612Z,57.06
2023-03-18T00:02:14.677Z,57.39
2023-03-18T00:03:16.646Z,56.40
2023-03-18T00:04:18.461Z,57.76
2023-03-18T00:05:20.660Z,57.42
2023-03-18T00:06:22.499Z,57.02
2023-03-18T00:07:24.370Z,57.80
2023-03-18T00:08:26.182Z,57.32
2023-03-18T00:09:28.065Z,57.38
2023-03-18T00:10:30.215Z,58.14
2023-03-18T00:11:32.478Z,58.74
2023-03-18T00:12:34.691Z,59.83
2023-03-18T00:13:36.503Z,59.32
2023-03-18T00:14:39.418Z,59.50
2023-03-18T00:15:41.226Z,59.27
2023-03-18T00:16:43.163Z,58.77
2023-03-18T00:17:45.198Z,59.06
2023-03-18T00:18:47.384Z,59.52
2023-03-18T00:19:50.463Z,59.06
2023-03-18T00:20:52.192Z,59.94
2023-03-18T00:21:54.015Z,59.97
2023-03-18T00:22:57.779Z,59.41
2023-03-18T00:24:00.906Z,59.65
2023-03-18T00:25:03.398Z,59.25
2023-03-18T00:26:05.852Z,59.34
2023-03-18T00:27:07.646Z,59.51
2023-03-18T00:28:09.637Z,59.27
2023-03-18T00:29:11.565Z,58.90
2023-03-18T00:30:14.340Z,59.29
2023-03-18T00:31:16.354Z,59.51
2023-03-18T00:32:18.170Z,58.85
2023-03-18T00:33:20.000Z,59.45
2023-03-18T00:34:21.886Z,59.00
2023-03-18T00:35:24.872Z,58.88
2023-03-18T00:36:26.818Z,59.05
2023-03-18T00:37:31.594Z,58.71
2023-03-18T00:38:33.971Z,60.31
2023-03-18T00:39:36.967Z,60.28
2023-03-18T00:40:53.796Z,60.02
2023-03-18T00:41:56.878Z,61.09
2023-03-18T00:43:08.137Z,60.67
2023-03-18T00:44:11.754Z,60.98
2023-03-18T00:45:14.743Z,60.32
2023-03-18T00:46:18.052Z,60.29
2023-03-18T00:47:21.233Z,59.79
2023-03-18T00:48:24.432Z,60.36
2023-03-18T00:49:26.657Z,60.58
2023-03-18T00:50:28.798Z,60.33
2023-03-18T00:51:32.598Z,60.96
2023-03-18T00:52:34.752Z,60.50
2023-03-18T00:53:37.221Z,60.99
2023-03-18T00:54:39.398Z,60.46
2023-03-18T00:55:41.581Z,60.00
2023-03-18T00:56:43.330Z,60.80
2023-03-18T00:57:45.159Z,60.75
2023-03-18T00:58:47.549Z,60.71
2023-03-18T00:59:49.393Z,60.46
2023-03-18T01:00:51.305Z,60.34
2023-03-18T01:01:53.834Z,60.49
2023-03-18T01:02:56.386Z,60.35
2023-03-18T01:03:58.211Z,60.46
2023-03-18T01:05:00.134Z,61.55
2023-03-18T01:06:04.472Z,60.87
2023-03-18T01:07:06.359Z,60.58
2023-03-18T01:08:08.190Z,60.57
2023-03-18T01:09:11.953Z,60.37
2023-03-18T01:10:14.882Z,60.30
2023-03-18T01:11:16.875Z,60.62
2023-03-18T01:12:18.700Z,60.59
2023-03-18T01:13:20.922Z,60.14
2023-03-18T01:14:22.722Z,60.69
2023-03-18T01:15:25.654Z,60.53
2023-03-18T01:16:28.448Z,60.69
2023-03-18T01:17:30.384Z,60.07
2023-03-18T01:18:32.314Z,60.30
2023-03-18T01:19:34.461Z,59.96
2023-03-18T01:20:36.211Z,59.55
2023-03-18T01:21:38.190Z,59.12
2023-03-18T01:22:42.406Z,59.53
2023-03-18T01:23:44.501Z,59.67
2023-03-18T01:24:47.831Z,59.28
2023-03-18T01:25:50.105Z,58.35
2023-03-18T01:26:52.597Z,58.95
2023-03-18T01:27:54.963Z,59.13
2023-03-18T01:28:57.361Z,59.32
2023-03-18T01:30:00.334Z,59.33
2023-03-18T01:31:02.117Z,58.55
2023-03-18T01:32:04.208Z,59.13
2023-03-18T01:33:07.911Z,58.90
2023-03-18T01:34:09.815Z,58.82
2023-03-18T01:35:12.697Z,59.02
2023-03-18T01:36:15.987Z,58.84
2023-03-18T01:37:17.920Z,59.81
2023-03-18T01:38:19.758Z,59.17
2023-03-18T01:39:22.193Z,59.77
2023-03-18T01:40:24.023Z,60.39
2023-03-18T01:41:26.339Z,60.57
2023-03-18T01:42:28.292Z,60.63
2023-03-18T01:43:32.121Z,61.61
2023-03-18T01:44:33.956Z,60.42
2023-03-18T01:45:35.992Z,60.63
2023-03-18T01:46:39.912Z,61.34
2023-03-18T01:47:44.928Z,61.99
2023-03-18T01:48:46.859Z,61.42
2023-03-18T01:49:49.792Z,60.70
2023-03-18T01:50:55.172Z,60.37
2023-03-18T01:52:20.055Z,60.49
2023-03-18T01:53:23.025Z,60.01
2023-03-18T01:54:26.413Z,59.83
2023-03-18T01:55:30.085Z,60.56
2023-03-18T01:56:33.145Z,61.87
2023-03-18T01:57:35.417Z,62.20
2023-03-18T01:58:39.107Z,63.00
2023-03-18T01:59:42.626Z,63.39
2023-03-18T02:00:47.322Z,64.33
2023-03-18T02:01:55.127Z,63.19
2023-03-18T02:02:58.296Z,62.68
2023-03-18T02:04:01.300Z,62.87
2023-03-18T02:05:06.547Z,63.33
2023-03-18T02:06:10.359Z,62.66
2023-03-18T02:07:17.137Z,63.22
2023-03-18T02:08:19.074Z,63.72
2023-03-18T02:09:20.870Z,63.63
2023-03-18T02:10:27.009Z,64.04
2023-03-18T02:11:31.212Z,63.19
2023-03-18T02:12:34.713Z,62.59
2023-03-18T02:13:41.756Z,62.24
2023-03-18T02:14:44.392Z,61.60
2023-03-18T02:15:48.884Z,62.92
2023-03-18T02:17:00.504Z,63.42
2023-03-18T02:18:06.140Z,64.13
2023-03-18T02:19:14.074Z,63.72
2023-03-18T02:20:15.823Z,64.65
2023-03-18T02:21:29.961Z,64.65
2023-03-18T02:22:41.650Z,64.47
2023-03-18T02:23:52.753Z,64.63
2023-03-18T02:25:13.405Z,63.90
2023-03-18T02:26:15.225Z,63.16
2023-03-18T02:27:21.351Z,62.32
2023-03-18T02:28:24.989Z,62.01
2023-03-18T02:29:28.485Z,62.04
2023-03-18T02:30:40.414Z,62.02
2023-03-18T02:31:43.003Z,63.44
2023-03-18T02:32:46.094Z,62.66
2023-03-18T02:33:48.001Z,63.00
2023-03-18T02:34:49.817Z,63.10
2023-03-18T02:35:59.487Z,62.70
2023-03-18T02:37:01.776Z,62.84
2023-03-18T02:38:05.029Z,62.96
2023-03-18T02:39:06.796Z,63.09
2023-03-18T02:40:25.253Z,62.42
2023-03-18T02:41:29.084Z,62.78
2023-03-18T02:42:32.359Z,62.73
2023-03-18T02:43:34.220Z,62.77
2023-03-18T02:44:39.735Z,63.36
2023-03-18T02:46:01.762Z,64.74
2023-03-18T02:47:07.094Z,64.36
2023-03-18T02:48:12.136Z,63.41
2023-03-18T02:49:14.703Z,63.34
2023-03-18T02:50:16.605Z,63.26
2023-03-18T02:51:19.278Z,62.96
2023-03-18T02:52:21.214Z,64.15
2023-03-18T02:53:23.000Z,63.72
2023-03-18T02:54:29.309Z,64.84
2023-03-18T02:55:31.250Z,65.42
2023-03-18T02:56:33.209Z,65.57
2023-03-18T02:57:35.123Z,65.31
2023-03-18T02:58:37.347Z,65.09
2023-03-18T02:59:39.182Z,65.25
2023-03-18T03:00:41.033Z,64.83
2023-03-18T03:01:44.204Z,64.89
2023-03-18T03:02:46.912Z,65.07
2023-03-18T03:03:48.865Z,63.91
2023-03-18T03:04:50.730Z,64.42
2023-03-18T03:05:52.976Z,65.59
2023-03-18T03:06:56.864Z,65.79
2023-03-18T03:07:58.758Z,65.65
2023-03-18T03:09:01.256Z,65.72
2023-03-18T03:10:04.398Z,64.61
2023-03-18T03:11:06.210Z,64.42
2023-03-18T03:12:08.163Z,65.05
2023-03-18T03:13:10.235Z,64.93
2023-03-18T03:14:12.117Z,65.38
2023-03-18T03:15:14.582Z,66.20
2023-03-18T03:16:17.498Z,66.61
2023-03-18T03:17:19.367Z,67.60
2023-03-18T03:18:21.800Z,67.42
2023-03-18T03:19:24.055Z,67.57
2023-03-18T03:20:25.846Z,68.17
2023-03-18T03:21:28.374Z,68.60
2023-03-18T03:22:30.771Z,68.41
2023-03-18T03:23:33.227Z,68.52
2023-03-18T03:24:35.052Z,68.50
2023-03-18T03:25:37.232Z,68.74
2023-03-18T03:26:39.118Z,68.06
2023-03-18T03:27:41.396Z,67.65
2023-03-18T03:28:43.272Z,68.14
2023-03-18T03:29:45.138Z,68.24
2023-03-18T03:30:47.054Z,68.18
2023-03-18T03:31:48.964Z,68.20
2023-03-18T03:32:51.048Z,68.42
2023-03-18T03:33:53.061Z,68.56
2023-03-18T03:34:54.956Z,68.19
2023-03-18T03:35:58.446Z,68.56
2023-03-18T03:37:00.325Z,68.30
2023-03-18T03:38:02.473Z,68.25
2023-03-18T03:39:04.494Z,67.80
2023-03-18T03:40:06.742Z,67.12
2023-03-18T03:41:10.628Z,66.60
2023-03-18T03:42:12.502Z,66.33
2023-03-18T03:43:15.077Z,65.99
2023-03-18T03:44:17.526Z,65.71
2023-03-18T03:45:20.378Z,65.57
2023-03-18T03:46:22.245Z,65.43
2023-03-18T03:47:24.066Z,65.44
2023-03-18T03:48:26.067Z,65.27
2023-03-18T03:49:28.235Z,65.71
2023-03-18T03:50:30.186Z,65.67
2023-03-18T03:51:32.604Z,65.38
2023-03-18T03:52:34.485Z,65.38
2023-03-18T03:53:36.525Z,65.20
2023-03-18T03:54:38.510Z,66.62
2023-03-18T03:55:40.430Z,66.90
2023-03-18T03:56:43.268Z,66.79
2023-03-18T03:57:45.494Z,66.27
2023-03-18T03:58:47.723Z,66.35
2023-03-18T03:59:49.566Z,66.62
2023-03-18T04:00:51.378Z,66.38
2023-03-18T04:01:53.125Z,65.73
2023-03-18T04:02:54.993Z,65.85
2023-03-18T04:03:56.969Z,65.85
2023-03-18T04:04:58.833Z,65.57
2023-03-18T04:06:01.107Z,65.77
2023-03-18T04:07:03.510Z,66.11
2023-03-18T04:08:06.789Z,66.38
2023-03-18T04:09:08.675Z,65.87
2023-03-18T04:10:12.270Z,65.53
2023-03-18T04:11:14.123Z,65.44
2023-03-18T04:12:18.566Z,66.35
2023-03-18T04:13:20.414Z,66.19
2023-03-18T04:14:22.190Z,65.52
2023-03-18T04:15:24.121Z,65.45
2023-03-18T04:16:26.000Z,66.05
2023-03-18T04:17:27.868Z,65.74
2023-03-18T04:18:29.701Z,66.16
2023-03-18T04:19:31.585Z,65.71
2023-03-18T04:20:39.633Z,66.26
2023-03-18T04:21:41.402Z,66.47
2023-03-18T04:22:44.183Z,66.44
2023-03-18T04:23:46.712Z,65.83
2023-03-18T04:24:48.554Z,65.81
2023-03-18T04:25:50.789Z,66.29
2023-03-18T04:26:52.576Z,66.93
2023-03-18T04:27:54.382Z,66.42
2023-03-18T04:28:56.142Z,67.60
2023-03-18T04:29:58.238Z,67.52
2023-03-18T04:31:00.237Z,67.49
2023-03-18T04:32:02.045Z,67.26
2023-03-18T04:33:03.910Z,67.52
2023-03-18T04:34:05.865Z,67.80
2023-03-18T04:35:07.984Z,67.64
2023-03-18T04:36:10.308Z,68.06
2023-03-18T04:37:14.472Z,67.99
2023-03-18T04:38:16.213Z,69.14
2023-03-18T04:39:18.569Z,68.63
2023-03-18T04:40:20.899Z,69.11
2023-03-18T04:41:22.934Z,69.39
2023-03-18T04:42:24.789Z,69.31
2023-03-18T04:43:26.898Z,69.07
2023-03-18T04:44:29.302Z,68.60
2023-03-18T04:45:31.122Z,68.03
2023-03-18T04:46:33.163Z,67.72
2023-03-18T04:47:36.221Z,67.45
2023-03-18T04:48:38.738Z,67.56
2023-03-18T04:49:40.920Z,67.41
2023-03-18T04:50:43.956Z,68.10
2023-03-18T04:51:46.111Z,68.17
2023-03-18T04:52:48.618Z,67.77
2023-03-18T04:53:50.478Z,67.86
2023-03-18T04:54:53.111Z,68.23
2023-03-18T04:55:55.899Z,68.46
2023-03-18T04:56:57.808Z,68.70
2023-03-18T04:57:59.654Z,67.78
2023-03-18T04:59:01.484Z,67.15
2023-03-18T05:00:06.962Z,67.00
2023-03-18T05:01:10.306Z,67.03
2023-03-18T05:02:12.213Z,67.18
2023-03-18T05:03:13.967Z,67.64
2023-03-18T05:04:15.945Z,67.94
2023-03-18T05:05:18.498Z,67.68
2023-03-18T05:06:24.353Z,68.39
2023-03-18T05:07:27.035Z,68.20
2023-03-18T05:08:28.771Z,67.95
2023-03-18T05:09:30.586Z,67.72
2023-03-18T05:10:32.394Z,67.34
2023-03-18T05:11:34.289Z,67.24
2023-03-18T05:12:37.512Z,67.28
2023-03-18T05:13:39.555Z,67.64
2023-03-18T05:14:42.953Z,67.54
2023-03-18T05:15:45.158Z,67.12
2023-03-18T05:16:47.125Z,67.02
2023-03-18T05:17:49.078Z,66.46
2023-03-18T05:18:51.176Z,66.30
2023-03-18T05:19:53.159Z,66.99
2023-03-18T05:20:55.260Z,67.41
2023-03-18T05:21:57.107Z,67.43
2023-03-18T05:22:58.950Z,67.45
2023-03-18T05:24:01.430Z,67.54
2023-03-18T05:25:03.332Z,68.17
2023-03-18T05:26:05.941Z,67.95
2023-03-18T05:27:07.950Z,68.08
2023-03-18T05:28:11.403Z,67.94
2023-03-18T05:29:13.567Z,68.04
2023-03-18T05:30:15.733Z,68.59
2023-03-18T05:31:17.792Z,68.00
2023-03-18T05:32:19.746Z,67.25
2023-03-18T05:33:23.378Z,67.71
2023-03-18T05:34:25.360Z,67.86
2023-03-18T05:35:27.912Z,67.33
2023-03-18T05:36:29.835Z,67.18
2023-03-18T05:37:31.768Z,67.58
2023-03-18T05:38:33.559Z,67.34
2023-03-18T05:39:35.316Z,67.60
2023-03-18T05:40:37.758Z,67.42
2023-03-18T05:41:40.157Z,67.28
2023-03-18T05:42:57.379Z,67.81
2023-03-18T05:43:59.238Z,67.39
2023-03-18T05:45:00.982Z,67.51
2023-03-18T05:46:02.845Z,67.75
2023-03-18T05:47:04.823Z,67.55
2023-03-18T05:48:07.050Z,67.33
2023-03-18T05:49:09.059Z,67.45
2023-03-18T05:50:11.263Z,67.37
2023-03-18T05:51:13.080Z,67.36
2023-03-18T05:52:17.621Z,67.11
2023-03-18T05:53:19.477Z,67.61
2023-03-18T05:54:21.365Z,68.46
2023-03-18T05:55:23.835Z,67.96
2023-03-18T05:56:26.009Z,67.69
2023-03-18T05:57:28.600Z,67.50
2023-03-18T05:58:31.547Z,67.99
2023-03-18T05:59:33.326Z,67.88
2023-03-18T06:00:36.013Z,67.94
2023-03-18T06:01:38.203Z,68.63
2023-03-18T06:02:40.335Z,69.85
2023-03-18T06:03:43.064Z,69.33
2023-03-18T06:04:44.963Z,69.37
2023-03-18T06:05:47.918Z,69.06
2023-03-18T06:06:49.956Z,69.29
2023-03-18T06:07:52.937Z,69.23
2023-03-18T06:08:56.414Z,69.80
2023-03-18T06:09:58.176Z,69.28
2023-03-18T06:10:59.929Z,69.45
2023-03-18T06:12:01.973Z,69.15
2023-03-18T06:13:03.737Z,68.70
2023-03-18T06:14:06.192Z,68.84
2023-03-18T06:15:09.149Z,68.64
2023-03-18T06:16:11.622Z,68.43
2023-03-18T06:17:14.354Z,68.83
2023-03-18T06:18:17.341Z,68.62
2023-03-18T06:19:19.712Z,68.51
2023-03-18T06:20:21.749Z,68.46
2023-03-18T06:21:23.589Z,68.71
2023-03-18T06:22:25.570Z,68.39
2023-03-18T06:23:27.760Z,68.59
2023-03-18T06:24:29.647Z,68.75
2023-03-18T06:25:31.853Z,68.77
2023-03-18T06:26:34.517Z,68.72
2023-03-18T06:27:36.629Z,68.38
2023-03-18T06:28:38.569Z,68.54
2023-03-18T06:29:41.299Z,68.63
2023-03-18T06:30:43.172Z,69.20
2023-03-18T06:31:44.999Z,69.61
2023-03-18T06:32:46.816Z,69.20
2023-03-18T06:33:48.654Z,69.41
2023-03-18T06:34:50.865Z,69.31
2023-03-18T06:35:53.616Z,69.20
2023-03-18T06:36:56.737Z,68.75
2023-03-18T06:37:58.583Z,68.75
2023-03-18T06:39:00.390Z,68.44
2023-03-18T06:40:02.175Z,68.45
2023-03-18T06:41:05.021Z,68.11
2023-03-18T06:42:06.999Z,68.12
2023-03-18T06:43:08.963Z,68.43
2023-03-18T06:44:11.499Z,68.34
2023-03-18T06:45:13.778Z,68.20
2023-03-18T06:46:15.609Z,68.15
2023-03-18T06:47:22.256Z,68.03
2023-03-18T06:48:24.148Z,68.04
2023-03-18T06:49:25.937Z,67.62
2023-03-18T06:50:28.065Z,67.42
2023-03-18T06:51:29.911Z,67.59
2023-03-18T06:52:32.083Z,67.46
2023-03-18T06:53:36.764Z,67.87
2023-03-18T06:54:38.630Z,67.42
2023-03-18T06:55:40.436Z,67.40
2023-03-18T06:56:42.722Z,67.51
2023-03-18T06:57:45.933Z,67.28
2023-03-18T06:58:47.867Z,67.03
2023-03-18T06:59:49.908Z,67.14
2023-03-18T07:00:52.126Z,67.04
2023-03-18T07:01:54.210Z,67.06
2023-03-18T07:02:55.988Z,66.42
2023-03-18T07:03:59.246Z,66.43
2023-03-18T07:05:02.091Z,66.01
2023-03-18T07:06:04.661Z,65.96
2023-03-18T07:07:06.874Z,66.34
2023-03-18T07:08:09.617Z,65.77
2023-03-18T07:09:13.044Z,65.67
2023-03-18T07:10:18.968Z,65.53
2023-03-18T07:11:20.868Z,65.63
2023-03-18T07:12:22.852Z,65.34
2023-03-18T07:13:25.175Z,65.87
2023-03-18T07:14:28.726Z,64.83
2023-03-18T07:15:30.811Z,65.55
2023-03-18T07:16:33.024Z,65.00
2023-03-18T07:17:34.777Z,64.97
2023-03-18T07:18:37.932Z,64.85
2023-03-18T07:19:40.102Z,64.14
2023-03-18T07:20:42.127Z,64.89
2023-03-18T07:21:44.082Z,65.04
2023-03-18T07:22:47.378Z,64.89
2023-03-18T07:23:49.789Z,64.88
2023-03-18T07:24:52.639Z,65.47
2023-03-18T07:25:54.921Z,65.09
2023-03-18T07:26:56.873Z,64.73
2023-03-18T07:28:00.530Z,64.69
2023-03-18T07:29:02.340Z,64.81
2023-03-18T07:30:04.430Z,64.25
2023-03-18T07:31:06.225Z,63.44
2023-03-18T07:32:08.613Z,64.10
2023-03-18T07:33:10.479Z,64.01
2023-03-18T07:34:12.866Z,64.02
2023-03-18T07:35:14.724Z,65.54
2023-03-18T07:36:16.556Z,66.32
2023-03-18T07:37:18.467Z,66.67
2023-03-18T07:38:20.239Z,65.37
2023-03-18T07:39:22.813Z,64.56
2023-03-18T07:40:24.840Z,63.35
2023-03-18T07:41:26.858Z,63.27
2023-03-18T07:42:28.660Z,63.21
2023-03-18T07:43:30.512Z,63.23
2023-03-18T07:44:32.409Z,64.15
2023-03-18T07:45:34.941Z,63.66
2023-03-18T07:46:36.763Z,63.05
2023-03-18T07:47:39.037Z,62.51
2023-03-18T07:48:40.908Z,62.67
2023-03-18T07:49:43.375Z,62.18
2023-03-18T07:50:45.400Z,61.59
2023-03-18T07:51:47.420Z,61.64
2023-03-18T07:52:49.221Z,59.93
2023-03-18T07:53:53.676Z,60.56
2023-03-18T07:54:55.638Z,60.80
2023-03-18T07:55:57.565Z,60.76
2023-03-18T07:56:59.359Z,60.32
2023-03-18T07:58:01.086Z,58.77
2023-03-18T07:59:03.030Z,59.40
2023-03-18T08:00:06.403Z,58.36
2023-03-18T08:01:08.378Z,57.96
2023-03-18T08:02:12.934Z,58.00
2023-03-18T08:03:15.165Z,57.74
2023-03-18T08:04:18.359Z,58.19
2023-03-18T08:05:20.413Z,59.13
2023-03-18T08:06:22.998Z,57.97
2023-03-18T08:07:25.640Z,57.86
2023-03-18T08:08:28.236Z,57.75
2023-03-18T08:09:30.050Z,57.51
2023-03-18T08:10:31.962Z,57.37
2023-03-18T08:11:33.887Z,56.15
2023-03-18T08:12:51.633Z,55.98
2023-03-18T08:13:54.229Z,54.63
2023-03-18T08:14:56.644Z,54.59
2023-03-18T08:15:59.037Z,54.71
2023-03-18T08:17:00.990Z,54.06
2023-03-18T08:18:02.973Z,54.49
2023-03-18T08:19:04.804Z,54.98
2023-03-18T08:20:07.014Z,54.78
2023-03-18T08:21:09.783Z,55.32
2023-03-18T08:22:11.718Z,54.50
2023-03-18T08:23:13.638Z,54.67
2023-03-18T08:24:15.530Z,54.13
2023-03-18T08:25:17.684Z,53.92
2023-03-18T08:26:19.698Z,55.35
2023-03-18T08:27:21.526Z,56.37
2023-03-18T08:28:24.010Z,56.88
2023-03-18T08:29:25.773Z,56.91
2023-03-18T08:30:29.058Z,57.27
2023-03-18T08:31:30.949Z,58.19
2023-03-18T08:32:32.994Z,55.93
2023-03-18T08:33:34.800Z,56.80
2023-03-18T08:34:36.862Z,55.65
2023-03-18T08:35:40.560Z,54.40
2023-03-18T08:36:43.241Z,54.84
2023-03-18T08:37:45.524Z,55.22
2023-03-18T08:38:47.277Z,54.55
2023-03-18T08:39:49.111Z,55.31
2023-03-18T08:40:51.090Z,55.74
2023-03-18T08:41:53.061Z,54.75
2023-03-18T08:42:54.924Z,54.38
2023-03-18T08:43:57.560Z,55.80
2023-03-18T08:44:59.757Z,55.70
2023-03-18T08:46:01.684Z,55.11
2023-03-18T08:47:03.477Z,55.62
2023-03-18T08:48:09.897Z,54.29
2023-03-18T08:49:12.593Z,54.90
2023-03-18T08:50:14.785Z,55.00
2023-03-18T08:51:17.093Z,54.58
2023-03-18T08:52:19.084Z,54.39
2023-03-18T08:53:20.945Z,53.73
2023-03-18T08:54:22.816Z,53.92
2023-03-18T08:55:34.764Z,54.15
2023-03-18T08:56:36.921Z,55.00
2023-03-18T08:57:39.212Z,54.44
2023-03-18T08:58:41.249Z,54.65
2023-03-18T08:59:43.060Z,54.61
2023-03-18T09:00:44.945Z,53.57
2023-03-18T09:01:46.756Z,52.53
2023-03-18T09:02:49.026Z,52.04
2023-03-18T09:03:51.025Z,52.68
2023-03-18T09:04:54.002Z,51.36
2023-03-18T09:05:55.915Z,52.28
2023-03-18T09:06:57.767Z,54.51
2023-03-18T09:08:00.620Z,54.00
2023-03-18T09:09:02.504Z,53.57
2023-03-18T09:10:04.620Z,52.94
2023-03-18T09:11:07.456Z,53.08
2023-03-18T09:12:09.383Z,53.27
2023-03-18T09:13:11.235Z,53.37
2023-03-18T09:14:13.817Z,53.69
2023-03-18T09:15:16.318Z,51.13
2023-03-18T09:16:18.745Z,52.51
2023-03-18T09:18:20.675Z,51.15
2023-03-18T09:19:22.630Z,50.73
2023-03-18T09:20:24.674Z,51.20
2023-03-18T09:21:27.387Z,51.96
2023-03-18T09:22:29.342Z,52.31
2023-03-18T09:23:32.613Z,50.39
2023-03-18T09:24:35.306Z,52.33
2023-03-18T09:25:37.361Z,53.22
2023-03-18T09:26:39.773Z,52.37
2023-03-18T09:27:42.500Z,51.74
2023-03-18T09:28:44.466Z,50.31
2023-03-18T09:29:46.935Z,51.34
2023-03-18T09:30:49.038Z,51.79
2023-03-18T09:31:51.137Z,52.98
2023-03-18T09:32:53.106Z,51.72
2023-03-18T09:33:55.228Z,51.19
2023-03-18T09:34:57.398Z,51.00
2023-03-18T09:35:59.479Z,51.61
2023-03-18T09:37:01.590Z,49.91
2023-03-18T09:38:04.911Z,50.69
2023-03-18T09:39:07.240Z,49.17
2023-03-18T09:40:11.019Z,50.41
2023-03-18T09:41:13.026Z,51.01
2023-03-18T09:42:33.666Z,50.50
2023-03-18T09:43:59.607Z,50.58
2023-03-18T09:45:10.766Z,52.42
2023-03-18T09:46:27.697Z,49.33
2023-03-18T09:47:41.543Z,49.81
2023-03-18T09:48:58.251Z,48.02
2023-03-18T09:50:24.572Z,48.26
2023-03-18T09:51:42.394Z,48.65
2023-03-18T09:52:54.324Z,47.21
2023-03-18T09:54:04.634Z,47.08
2023-03-18T09:55:22.620Z,47.62
2023-03-18T09:56:29.108Z,47.04
2023-03-18T09:57:38.941Z,49.18
2023-03-18T09:59:03.952Z,48.07
2023-03-18T10:00:25.084Z,48.56
2023-03-18T10:01:29.778Z,44.54
2023-03-18T10:02:38.846Z,44.41
2023-03-18T10:03:54.805Z,46.45
2023-03-18T10:05:02.222Z,45.22
2023-03-18T10:06:13.015Z,45.41
2023-03-18T10:07:20.302Z,46.25
2023-03-18T10:09:08.140Z,45.14
2023-03-18T10:10:22.774Z,46.12
2023-03-18T10:11:46.111Z,46.62
2023-03-18T10:12:54.976Z,45.53
2023-03-18T10:14:17.818Z,44.02
2023-03-18T10:15:37.500Z,44.80
2023-03-18T10:16:55.953Z,46.03
2023-03-18T10:17:57.981Z,45.72
2023-03-18T10:19:00.419Z,45.96
2023-03-18T10:20:06.617Z,44.65
2023-03-18T10:21:59.706Z,43.04
2023-03-18T10:23:14.950Z,43.72
2023-03-18T10:24:38.470Z,46.27
2023-03-18T10:25:46.370Z,45.71
2023-03-18T10:26:52.823Z,43.09
2023-03-18T10:28:18.465Z,42.03
2023-03-18T10:29:38.760Z,46.09
2023-03-18T10:31:11.464Z,42.04
2023-03-18T10:32:49.622Z,42.48
2023-03-18T10:34:01.849Z,43.04
2023-03-18T10:35:22.963Z,44.40
2023-03-18T10:36:36.971Z,41.86
2023-03-18T10:37:57.509Z,40.89
2023-03-18T10:39:01.505Z,43.72
2023-03-18T10:40:12.652Z,41.80
2023-03-18T10:41:32.859Z,41.44
2023-03-18T10:42:38.284Z,43.27
2023-03-18T10:43:40.327Z,42.34
2023-03-18T10:44:42.420Z,40.90
2023-03-18T10:45:47.140Z,42.13
2023-03-18T10:47:25.344Z,41.02
2023-03-18T10:48:46.184Z,41.72
2023-03-18T10:50:11.068Z,41.02
2023-03-18T10:51:21.801Z,40.85
2023-03-18T10:52:59.025Z,41.20
2023-03-18T10:54:17.192Z,39.68
2023-03-18T10:55:24.013Z,39.96
2023-03-18T10:56:27.747Z,41.41
2023-03-18T10:57:30.089Z,40.62
2023-03-18T10:58:32.451Z,40.72
2023-03-18T10:59:35.677Z,40.32
2023-03-18T11:00:37.698Z,39.14
2023-03-18T11:01:40.971Z,40.00
2023-03-18T11:02:43.932Z,39.49
2023-03-18T11:04:07.550Z,39.71
2023-03-18T11:05:12.178Z,40.63
2023-03-18T11:06:20.544Z,38.94
2023-03-18T11:07:26.937Z,38.58
2023-03-18T11:08:32.819Z,37.61
2023-03-18T11:09:42.648Z,37.70
2023-03-18T11:10:46.371Z,37.98
2023-03-18T11:11:50.851Z,40.50
2023-03-18T11:13:00.363Z,37.81
2023-03-18T11:14:05.098Z,37.11
2023-03-18T11:15:11.280Z,38.07
2023-03-18T11:16:24.865Z,37.63
2023-03-18T11:17:35.758Z,36.55
2023-03-18T11:18:38.494Z,36.33
2023-03-18T11:19:48.882Z,34.91
2023-03-18T11:21:01.520Z,35.26
2023-03-18T11:22:22.721Z,38.26
2023-03-18T11:23:49.312Z,36.95
2023-03-18T11:25:16.874Z,38.14
2023-03-18T11:26:23.604Z,36.29
2023-03-18T11:27:30.014Z,34.70
2023-03-18T11:28:33.557Z,35.70
2023-03-18T11:29:35.662Z,36.74
2023-03-18T11:30:58.232Z,35.92
2023-03-18T11:32:02.142Z,35.31
2023-03-18T11:33:16.125Z,35.12
2023-03-18T11:34:21.818Z,35.96
2023-03-18T11:35:32.820Z,35.47
2023-03-18T11:36:34.965Z,35.24
2023-03-18T11:37:41.111Z,35.68
2023-03-18T11:38:43.507Z,35.01
2023-03-18T11:39:45.569Z,35.55
2023-03-18T11:40:48.053Z,33.55
2023-03-18T11:41:50.086Z,33.71
2023-03-18T11:43:01.101Z,35.09
2023-03-18T11:44:07.037Z,35.12
2023-03-18T11:45:28.001Z,35.18
2023-03-18T11:46:36.578Z,37.18
2023-03-18T11:47:39.663Z,34.77
2023-03-18T11:48:43.871Z,35.37
2023-03-18T11:49:46.225Z,35.43
2023-03-18T11:50:54.178Z,34.03
2023-03-18T11:52:11.324Z,34.72
2023-03-18T11:53:28.522Z,34.49
2023-03-18T11:54:39.267Z,35.83
2023-03-18T11:55:53.098Z,35.36
2023-03-18T11:57:06.337Z,36.07
2023-03-18T11:58:32.787Z,34.52
2023-03-18T12:00:10.098Z,35.21
2023-03-18T12:01:32.939Z,33.69
2023-03-18T12:03:19.366Z,34.73
2023-03-18T12:04:34.201Z,35.17
2023-03-18T12:06:00.964Z,35.80
2023-03-18T12:07:15.765Z,34.21
2023-03-18T12:09:08.828Z,35.88
2023-03-18T12:10:26.463Z,34.70
2023-03-18T12:11:47.354Z,34.77
2023-03-18T12:13:01.176Z,34.54
2023-03-18T12:14:19.411Z,35.45
2023-03-18T12:15:43.048Z,35.17
2023-03-18T12:17:26.009Z,34.73
2023-03-18T12:18:42.703Z,35.09
2023-03-18T12:20:26.562Z,33.68
2023-03-18T12:21:47.862Z,34.86
2023-03-18T12:23:03.729Z,33.77
2023-03-18T12:24:21.014Z,34.57
2023-03-18T12:25:43.955Z,33.90
2023-03-18T12:27:02.041Z,35.61
2023-03-18T12:28:11.603Z,34.60
2023-03-18T12:29:37.680Z,35.04
2023-03-18T12:31:18.513Z,35.76
2023-03-18T12:32:40.566Z,35.39
2023-03-18T12:33:56.806Z,35.99
2023-03-18T12:35:12.106Z,33.97
2023-03-18T12:36:17.026Z,35.61
2023-03-18T12:37:32.547Z,35.29
2023-03-18T12:38:41.284Z,35.69
2023-03-18T12:40:04.863Z,34.66
2023-03-18T12:41:38.731Z,33.03
2023-03-18T12:42:53.447Z,34.12
2023-03-18T12:44:08.108Z,34.67
2023-03-18T12:45:18.089Z,35.48
2023-03-18T12:46:35.090Z,35.00
2023-03-18T12:47:49.513Z,35.00
2023-03-18T12:49:09.627Z,35.94
2023-03-18T12:50:27.388Z,34.77
2023-03-18T12:51:43.509Z,35.45
2023-03-18T12:53:04.365Z,36.33
2023-03-18T12:54:16.816Z,34.83
2023-03-18T12:55:48.459Z,34.23
2023-03-18T12:56:59.119Z,35.71
2023-03-18T12:58:11.185Z,34.93
2023-03-18T12:59:32.370Z,36.13
2023-03-18T13:00:42.513Z,34.17
2023-03-18T13:02:00.835Z,34.65
2023-03-18T13:03:22.543Z,35.73
2023-03-18T13:04:30.909Z,34.58
2023-03-18T13:06:01.175Z,36.56
2023-03-18T13:07:18.842Z,33.27
2023-03-18T13:09:18.179Z,35.49
2023-03-18T13:10:23.663Z,33.17
2023-03-18T13:11:50.796Z,35.41
2023-03-18T13:12:59.995Z,34.53
2023-03-18T13:14:26.788Z,36.08
2023-03-18T13:15:32.419Z,35.02
2023-03-18T13:16:37.874Z,34.54
2023-03-18T13:17:48.511Z,35.16
2023-03-18T13:18:53.793Z,34.66
2023-03-18T13:20:01.525Z,35.37
2023-03-18T13:21:06.089Z,34.37
2023-03-18T13:22:32.426Z,36.06
2023-03-18T13:23:49.476Z,36.21
2023-03-18T13:24:59.983Z,36.08
2023-03-18T13:26:11.041Z,35.59
2023-03-18T13:27:35.298Z,35.61
2023-03-18T13:29:08.177Z,36.39
2023-03-18T13:30:28.691Z,36.16
2023-03-18T13:32:08.149Z,34.71
2023-03-18T13:33:29.770Z,35.76
2023-03-18T13:34:56.590Z,36.82
2023-03-18T13:36:23.885Z,37.19
2023-03-18T13:37:44.835Z,36.53
2023-03-18T13:39:15.981Z,36.33
2023-03-18T13:40:40.510Z,35.45
2023-03-18T13:42:08.184Z,35.59
2023-03-18T13:43:17.920Z,36.07
2023-03-18T13:44:30.207Z,35.73
2023-03-18T13:45:41.995Z,35.64
2023-03-18T13:46:58.955Z,35.09
2023-03-18T13:48:07.716Z,35.54
2023-03-18T13:49:18.977Z,34.90
2023-03-18T13:50:20.871Z,35.18
2023-03-18T13:51:25.638Z,34.59
2023-03-18T13:52:55.788Z,35.97
2023-03-18T13:54:02.327Z,34.41
2023-03-18T13:55:32.411Z,34.37
2023-03-18T13:56:50.340Z,33.83
2023-03-18T13:57:57.476Z,34.69
2023-03-18T13:59:07.185Z,34.61
2023-03-18T14:00:27.463Z,35.47
2023-03-18T14:01:34.513Z,34.35
2023-03-18T14:02:46.026Z,36.03
2023-03-18T14:04:01.520Z,34.19
2023-03-18T14:05:13.206Z,34.54
2023-03-18T14:06:36.875Z,34.79
2023-03-18T14:07:49.784Z,35.47
2023-03-18T14:08:53.472Z,34.64
2023-03-18T14:10:19.546Z,35.53
2023-03-18T14:11:26.383Z,34.25
2023-03-18T14:12:31.349Z,33.94
2023-03-18T14:13:34.318Z,34.84
2023-03-18T14:14:54.671Z,35.60
2023-03-18T14:15:59.217Z,35.82